createdAt,value
2022-11-08T00:00:09.629Z,76.25
2022-11-08T00:02:37.566Z,74.33
2022-11-08T00:05:25.223Z,75.23
2022-11-08T00:08:12.215Z,75.65
2022-11-08T00:10:59.224Z,75.71
2022-11-08T00:13:46.095Z,74.13
2022-11-08T00:16:14.819Z,73.21
2022-11-08T00:18:43.167Z,73.85
2022-11-08T00:21:11.410Z,74.04
2022-11-08T00:23:40.187Z,72.82
2022-11-08T00:26:08.423Z,74.21
2022-11-08T00:28:36.152Z,73.77
2022-11-08T00:31:07.160Z,73.52
2022-11-08T00:33:35.315Z,71.99
2022-11-08T00:36:03.470Z,73.32
2022-11-08T00:38:31.112Z,72.73
2022-11-08T00:40:58.447Z,71.87
2022-11-08T00:43:25.772Z,74.51
2022-11-08T00:45:53.410Z,74.28
2022-11-08T00:48:20.950Z,72.51
2022-11-08T00:50:48.337Z,72.99
2022-11-08T00:53:15.946Z,73.76
2022-11-08T00:55:43.277Z,73.90
2022-11-08T00:58:10.610Z,73.09
2022-11-08T01:00:38.164Z,73.01
2022-11-08T01:03:20.329Z,72.58
2022-11-08T01:05:48.825Z,72.51
2022-11-08T01:08:16.838Z,72.70
2022-11-08T01:10:46.069Z,72.17
2022-11-08T01:13:13.779Z,72.52
2022-11-08T01:15:42.536Z,72.28
2022-11-08T01:18:28.808Z,72.51
2022-11-08T01:20:56.382Z,72.27
2022-11-08T01:23:23.710Z,71.97
2022-11-08T01:25:51.030Z,72.92
2022-11-08T01:28:19.024Z,72.54
2022-11-08T01:30:47.323Z,72.34
2022-11-08T01:33:15.717Z,72.39
2022-11-08T01:35:45.224Z,73.66
2022-11-08T01:38:12.572Z,72.38
2022-11-08T01:40:47.808Z,74.36
2022-11-08T01:43:30.568Z,74.32
2022-11-08T01:46:09.817Z,74.69
2022-11-08T01:48:40.271Z,73.04
2022-11-08T01:51:09.883Z,72.13
2022-11-08T01:53:37.670Z,72.14
2022-11-08T01:56:05.411Z,71.38
2022-11-08T01:58:34.845Z,70.86
2022-11-08T02:01:02.927Z,71.47
2022-11-08T02:03:33.183Z,72.68
2022-11-08T02:06:01.313Z,74.19
2022-11-08T02:08:38.624Z,74.71
2022-11-08T02:11:07.176Z,74.31
2022-11-08T02:13:35.908Z,73.92
2022-11-08T02:16:03.511Z,74.93
2022-11-08T02:18:32.076Z,73.90
2022-11-08T02:21:22.775Z,75.03
2022-11-08T02:23:52.326Z,72.83
2022-11-08T02:26:23.411Z,74.18
2022-11-08T02:28:51.282Z,72.87
2022-11-08T02:31:19.468Z,72.03
2022-11-08T02:33:47.369Z,72.21
2022-11-08T02:36:18.043Z,72.00
2022-11-08T02:38:53.452Z,71.30
2022-11-08T02:41:21.354Z,71.64
2022-11-08T02:43:48.671Z,73.36
2022-11-08T02:46:15.983Z,75.16
2022-11-08T02:48:43.557Z,74.20
2022-11-08T02:51:11.090Z,74.49
2022-11-08T02:53:38.462Z,75.60
2022-11-08T02:56:06.094Z,74.59
2022-11-08T02:58:33.412Z,74.85
2022-11-08T03:01:00.872Z,74.66
2022-11-08T03:03:28.525Z,72.57
2022-11-08T03:05:58.842Z,72.00
2022-11-08T03:08:26.171Z,74.46
2022-11-08T03:27:27.103Z,72.82
2022-11-08T03:29:54.777Z,73.80
2022-11-08T03:32:22.745Z,75.63
2022-11-08T03:34:50.042Z,76.41
2022-11-08T03:37:17.635Z,75.63
2022-11-08T03:39:44.978Z,75.91
2022-11-08T03:42:12.271Z,75.53
2022-11-08T03:44:39.831Z,75.04
2022-11-08T03:47:07.152Z,75.52
2022-11-08T03:49:34.468Z,75.95
2022-11-08T03:52:02.182Z,76.60
2022-11-08T03:54:29.539Z,75.33
2022-11-08T03:56:56.884Z,75.78
2022-11-08T03:59:24.458Z,76.25
2022-11-08T04:01:51.843Z,76.50
2022-11-08T04:04:19.539Z,76.60
2022-11-08T04:06:47.089Z,75.97
2022-11-08T04:09:19.012Z,74.24
2022-11-08T04:12:07.686Z,75.07
2022-11-08T04:14:53.754Z,75.74
2022-11-08T04:17:41.257Z,76.41
2022-11-08T04:20:27.740Z,75.03
2022-11-08T04:22:55.327Z,74.16
2022-11-08T04:25:22.660Z,73.79
2022-11-08T04:27:49.965Z,75.11
2022-11-08T04:30:17.690Z,78.16
2022-11-08T04:32:45.029Z,76.72
2022-11-08T04:35:12.446Z,75.38
2022-11-08T04:37:40.023Z,75.98
2022-11-08T04:40:08.085Z,76.59
2022-11-08T04:42:35.434Z,77.04
2022-11-08T04:45:03.300Z,76.76
2022-11-08T04:47:34.629Z,77.34
2022-11-08T04:50:05.485Z,76.58
2022-11-08T04:52:32.799Z,75.36
2022-11-08T04:55:00.143Z,76.30
2022-11-08T04:57:28.673Z,76.60
2022-11-08T04:59:56.006Z,77.83
2022-11-08T05:02:23.443Z,79.25
2022-11-08T05:04:51.063Z,78.26
2022-11-08T05:07:18.434Z,78.15
2022-11-08T05:09:45.787Z,78.47
2022-11-08T05:12:16.155Z,77.91
2022-11-08T05:14:43.484Z,78.36
2022-11-08T05:17:10.799Z,80.25
2022-11-08T05:19:57.048Z,78.79
2022-11-08T05:22:43.064Z,78.44
2022-11-08T05:25:10.646Z,78.18
2022-11-08T05:27:37.966Z,78.69
2022-11-08T05:30:05.954Z,77.64
2022-11-08T05:32:33.549Z,77.55
2022-11-08T05:35:00.872Z,78.56
2022-11-08T05:37:28.199Z,78.42
2022-11-08T05:39:55.790Z,80.93
2022-11-08T05:42:23.131Z,79.61
2022-11-08T05:44:50.511Z,78.71
2022-11-08T05:47:18.331Z,77.89
2022-11-08T05:49:45.650Z,76.86
2022-11-08T05:52:12.996Z,77.85
2022-11-08T05:54:40.584Z,78.90
2022-11-08T05:57:07.935Z,80.18
2022-11-08T05:59:35.248Z,79.54
2022-11-08T06:02:02.912Z,78.86
2022-11-08T06:04:30.712Z,77.68
2022-11-08T06:06:58.038Z,77.66
2022-11-08T06:09:25.363Z,77.66
2022-11-08T06:11:52.965Z,79.28
2022-11-08T06:14:20.319Z,78.25
2022-11-08T06:16:47.646Z,78.13
2022-11-08T06:19:15.238Z,77.92
2022-11-08T06:21:42.555Z,79.46
2022-11-08T06:24:09.893Z,81.88
2022-11-08T06:26:37.517Z,82.13
2022-11-08T06:29:04.803Z,80.00
2022-11-08T06:31:32.160Z,79.86
2022-11-08T06:33:59.752Z,79.78
2022-11-08T06:36:27.136Z,80.84
2022-11-08T06:38:55.210Z,80.83
2022-11-08T06:41:22.906Z,81.96
2022-11-08T06:43:50.294Z,81.42
2022-11-08T06:46:17.646Z,81.79
2022-11-08T06:48:45.283Z,83.12
2022-11-08T06:51:12.675Z,83.33
2022-11-08T06:53:40.111Z,81.09
2022-11-08T06:56:07.939Z,81.01
2022-11-08T06:58:35.573Z,78.59
2022-11-08T07:01:05.046Z,80.49
2022-11-08T07:03:33.187Z,82.16
2022-11-08T07:06:05.794Z,84.75
2022-11-08T07:08:33.441Z,86.00
2022-11-08T07:11:00.828Z,82.07
2022-11-08T07:13:28.198Z,81.08
2022-11-08T07:15:59.624Z,83.06
2022-11-08T07:18:27.452Z,82.64
2022-11-08T07:20:59.534Z,83.94
2022-11-08T07:23:27.832Z,80.22
2022-11-08T07:25:55.350Z,79.86
2022-11-08T07:28:22.689Z,83.52
2022-11-08T07:30:50.279Z,82.05
2022-11-08T07:33:18.273Z,82.42
2022-11-08T07:35:47.465Z,82.52
2022-11-08T07:38:15.139Z,80.20
2022-11-08T07:40:42.538Z,82.20
2022-11-08T07:43:12.716Z,80.95
2022-11-08T07:45:41.579Z,81.47
2022-11-08T07:48:12.664Z,86.02
2022-11-08T07:50:55.004Z,86.19
2022-11-08T07:53:32.124Z,84.99
2022-11-08T07:56:03.832Z,82.49
2022-11-08T07:58:34.449Z,82.52
2022-11-08T08:01:07.252Z,81.55
2022-11-08T08:03:44.755Z,83.27
2022-11-08T08:06:26.385Z,82.34
2022-11-08T08:08:54.008Z,84.72
2022-11-08T08:11:41.597Z,80.88
2022-11-08T08:14:27.692Z,80.93
2022-11-08T08:16:57.387Z,83.79
2022-11-08T08:19:41.108Z,88.37
2022-11-08T08:22:08.381Z,84.39
2022-11-08T08:24:45.213Z,85.39
2022-11-08T08:27:14.139Z,84.03
2022-11-08T08:29:45.524Z,86.56
2022-11-08T08:32:13.316Z,87.62
2022-11-08T08:34:41.113Z,86.05
2022-11-08T08:37:15.309Z,89.08
2022-11-08T08:39:43.684Z,90.98
2022-11-08T08:42:20.125Z,93.20
2022-11-08T08:44:48.501Z,88.46
2022-11-08T08:47:17.136Z,89.66
2022-11-08T08:49:44.884Z,89.33
2022-11-08T08:52:38.028Z,89.63
2022-11-08T08:55:15.211Z,87.57
2022-11-08T08:57:47.160Z,90.62
2022-11-08T09:03:24.720Z,88.87
2022-11-08T09:05:53.373Z,88.11
2022-11-08T09:08:24.875Z,87.09
2022-11-08T09:10:56.456Z,87.97
2022-11-08T09:13:26.215Z,88.60
2022-11-08T09:15:54.972Z,89.86
2022-11-08T09:18:23.079Z,90.35
2022-11-08T09:20:50.468Z,87.91
2022-11-08T09:23:18.516Z,91.89
2022-11-08T09:25:46.145Z,92.76
2022-11-08T09:28:13.474Z,90.30
2022-11-08T09:30:41.071Z,93.41
2022-11-08T09:33:08.478Z,93.40
2022-11-08T09:35:35.883Z,90.62
2022-11-08T09:38:03.487Z,90.12
2022-11-08T09:40:37.578Z,90.34
2022-11-08T09:43:08.107Z,91.85
2022-11-08T09:45:42.460Z,88.24
2022-11-08T09:48:28.999Z,85.27
2022-11-08T09:50:57.723Z,85.60
2022-11-08T09:53:45.297Z,88.48
2022-11-08T09:56:23.977Z,88.68
2022-11-08T09:59:03.603Z,86.34
2022-11-08T10:01:35.342Z,85.24
2022-11-08T10:04:06.123Z,86.56
2022-11-08T10:07:01.893Z,86.19
2022-11-08T10:09:30.081Z,84.47
2022-11-08T10:12:20.013Z,88.54
2022-11-08T10:15:19.484Z,88.94
2022-11-08T10:18:05.693Z,87.32
2022-11-08T10:20:48.464Z,88.79
2022-11-08T10:23:24.313Z,89.45
2022-11-08T10:25:56.977Z,89.01
2022-11-08T10:28:37.572Z,85.32
2022-11-08T10:31:05.770Z,86.86
2022-11-08T10:33:43.188Z,84.33
2022-11-08T10:36:15.449Z,84.16
2022-11-08T10:38:51.460Z,85.50
2022-11-08T10:41:44.128Z,82.10
2022-11-08T10:44:15.864Z,79.14
2022-11-08T10:46:55.593Z,79.65
2022-11-08T10:49:31.233Z,79.69
2022-11-08T10:52:01.117Z,76.97
2022-11-08T10:54:48.923Z,75.46
2022-11-08T10:57:42.376Z,76.23
2022-11-08T11:00:36.162Z,74.92
2022-11-08T11:03:09.886Z,79.29
2022-11-08T11:05:55.665Z,76.06
2022-11-08T11:08:23.514Z,75.33
2022-11-08T11:10:51.042Z,73.52
2022-11-08T11:13:18.331Z,71.44
2022-11-08T11:15:46.628Z,71.97
2022-11-08T11:18:33.427Z,70.42
2022-11-08T11:21:06.355Z,71.21
2022-11-08T11:23:45.718Z,70.49
2022-11-08T11:26:32.926Z,70.48
2022-11-08T11:29:06.560Z,69.06
2022-11-08T11:31:38.663Z,68.18
2022-11-08T11:34:18.163Z,69.33
2022-11-08T11:36:57.925Z,69.43
2022-11-08T11:39:31.213Z,75.14
2022-11-08T11:42:17.802Z,70.69
2022-11-08T11:45:08.578Z,72.92
2022-11-08T11:47:55.927Z,74.59
2022-11-08T11:50:28.860Z,75.43
2022-11-08T11:52:57.551Z,76.57
2022-11-08T11:55:42.989Z,78.74
2022-11-08T11:58:30.873Z,77.74
2022-11-08T12:01:04.532Z,76.81
2022-11-08T12:03:57.722Z,76.32
2022-11-08T12:07:00.805Z,78.30
2022-11-08T12:09:53.622Z,76.01
2022-11-08T12:12:36.133Z,74.52
2022-11-08T12:15:17.264Z,76.21
2022-11-08T12:17:47.182Z,79.05
2022-11-08T12:20:26.617Z,77.81
2022-11-08T12:23:19.032Z,77.40
2022-11-08T12:25:52.592Z,75.58
2022-11-08T12:28:29.908Z,73.35
2022-11-08T12:31:04.219Z,74.46
2022-11-08T12:33:47.934Z,74.90
2022-11-08T12:36:32.413Z,76.63
2022-11-08T12:39:04.828Z,75.53
2022-11-08T12:41:40.331Z,75.04
2022-11-08T12:44:13.835Z,72.86
2022-11-08T12:46:50.630Z,73.60
2022-11-08T12:49:39.116Z,74.28
2022-11-08T12:52:22.808Z,74.29
2022-11-08T12:55:16.519Z,76.36
2022-11-08T12:57:45.475Z,76.91
2022-11-08T13:00:17.474Z,76.85
2022-11-08T13:03:10.634Z,76.09
2022-11-08T13:05:43.138Z,76.16
2022-11-08T13:08:20.183Z,74.47
2022-11-08T13:10:59.119Z,75.03
2022-11-08T13:13:28.382Z,73.83
2022-11-08T13:16:12.137Z,73.42
2022-11-08T13:18:54.486Z,71.66
2022-11-08T13:21:28.356Z,71.94
2022-11-08T13:24:09.957Z,72.39
2022-11-08T13:26:50.219Z,74.08
2022-11-08T13:29:18.021Z,72.26
2022-11-08T13:31:49.409Z,74.39
2022-11-08T13:34:38.062Z,74.44
2022-11-08T13:37:30.127Z,73.79
2022-11-08T13:40:12.808Z,74.11
2022-11-08T13:42:57.896Z,74.54
2022-11-08T13:45:33.206Z,73.27
2022-11-08T13:48:02.814Z,73.07
2022-11-08T13:50:31.459Z,72.42
2022-11-08T13:53:18.775Z,71.53
2022-11-08T13:55:49.121Z,71.56
2022-11-08T13:58:39.703Z,73.88
2022-11-08T14:01:07.219Z,76.60
2022-11-08T14:03:34.719Z,74.27
2022-11-08T14:06:04.930Z,74.13
2022-11-08T14:09:10.828Z,73.33
2022-11-08T14:12:18.606Z,70.83
2022-11-08T14:14:52.755Z,72.05
2022-11-08T14:17:29.225Z,71.32
2022-11-08T14:19:59.594Z,72.61
2022-11-08T14:22:28.508Z,72.69
2022-11-08T14:25:09.038Z,72.82
2022-11-08T14:27:39.431Z,71.32
2022-11-08T14:30:19.411Z,72.38
2022-11-08T14:32:47.392Z,74.56
2022-11-08T14:35:25.829Z,72.75
2022-11-08T14:37:54.706Z,72.99
2022-11-08T14:40:28.230Z,74.69
2022-11-08T14:42:56.349Z,73.32
2022-11-08T14:45:27.558Z,72.76
2022-11-08T14:48:03.653Z,71.43
2022-11-08T14:50:34.189Z,72.36
2022-11-08T14:53:20.678Z,74.14
2022-11-08T14:55:55.122Z,73.22
2022-11-08T14:58:22.818Z,72.68
2022-11-08T15:00:50.726Z,72.53
2022-11-08T15:03:19.811Z,75.06
2022-11-08T15:05:54.516Z,78.28
2022-11-08T15:08:27.409Z,78.62
2022-11-08T15:11:28.679Z,76.76
2022-11-08T15:14:05.458Z,76.41
2022-11-08T15:16:43.731Z,78.38
2022-11-08T15:19:37.324Z,76.75
2022-11-08T15:22:28.964Z,77.90
2022-11-08T15:25:15.722Z,78.80
2022-11-08T15:27:57.762Z,80.82
2022-11-08T15:30:31.456Z,79.93
2022-11-08T15:32:59.229Z,79.74
2022-11-08T15:35:47.135Z,79.51
2022-11-08T15:38:31.022Z,81.14
2022-11-08T15:41:02.272Z,81.62
2022-11-08T15:43:32.638Z,83.17
2022-11-08T15:46:01.143Z,87.18
2022-11-08T15:48:28.987Z,88.10
2022-11-08T15:50:56.924Z,87.16
2022-11-08T15:53:26.550Z,89.76
2022-11-08T15:55:57.681Z,88.21
2022-11-08T15:58:44.981Z,87.23
2022-11-08T16:01:20.820Z,90.54
2022-11-08T16:03:48.877Z,89.16
2022-11-08T16:06:16.343Z,89.86
2022-11-08T16:08:43.890Z,90.13
2022-11-08T16:11:21.157Z,91.61
2022-11-08T16:13:51.474Z,92.22
2022-11-08T16:16:20.170Z,92.43
2022-11-08T16:18:48.086Z,92.36
2022-11-08T16:21:15.853Z,94.82
2022-11-08T16:23:43.997Z,95.53
2022-11-08T16:26:17.419Z,93.14
2022-11-08T16:28:45.167Z,96.54
2022-11-08T16:31:17.792Z,97.20
2022-11-08T16:33:46.571Z,96.27
2022-11-08T16:36:20.740Z,94.77
2022-11-08T16:38:56.596Z,97.09
2022-11-08T16:41:25.153Z,95.12
2022-11-08T16:43:53.568Z,97.02
2022-11-08T16:46:22.231Z,96.20
2022-11-08T16:48:54.840Z,94.42
2022-11-08T16:51:32.181Z,95.76
2022-11-08T16:54:02.723Z,95.82
2022-11-08T16:56:30.956Z,92.51
2022-11-08T16:58:58.398Z,93.93
2022-11-08T17:01:31.732Z,93.62
2022-11-08T17:03:59.524Z,96.29
2022-11-08T17:06:27.319Z,96.69
2022-11-08T17:08:55.100Z,99.49
2022-11-08T17:11:24.278Z,96.79
2022-11-08T17:13:53.165Z,95.71
2022-11-08T17:16:21.190Z,94.91
2022-11-08T17:18:53.075Z,94.73
2022-11-08T17:24:09.436Z,97.04
2022-11-08T17:26:36.778Z,98.90
2022-11-08T17:29:06.515Z,97.48
2022-11-08T17:31:34.478Z,96.69
2022-11-08T17:34:02.168Z,97.06
2022-11-08T17:36:30.004Z,94.67
2022-11-08T17:38:58.662Z,94.83
2022-11-08T17:41:26.475Z,98.50
2022-11-08T17:43:54.479Z,96.50
2022-11-08T17:46:22.814Z,97.08
2022-11-08T17:48:50.844Z,99.21
2022-11-08T17:51:18.444Z,96.36
2022-11-08T17:53:46.579Z,95.29
2022-11-08T17:56:14.516Z,96.43
2022-11-08T17:58:42.309Z,97.62
2022-11-08T18:01:10.775Z,97.74
2022-11-08T18:03:38.694Z,96.21
2022-11-08T18:06:11.776Z,93.44
2022-11-08T18:08:40.614Z,93.37
2022-11-08T18:11:08.976Z,93.23
2022-11-08T18:13:37.512Z,92.74
2022-11-08T18:16:14.277Z,97.27
2022-11-08T18:18:43.380Z,94.17
2022-11-08T18:21:12.447Z,92.48
2022-11-08T18:23:44.721Z,94.47
2022-11-08T18:26:15.539Z,92.61
2022-11-08T18:28:44.793Z,93.44
2022-11-08T18:31:16.225Z,91.85
2022-11-08T18:33:47.816Z,92.32
2022-11-08T18:36:22.002Z,89.71
2022-11-08T18:38:51.870Z,92.43
2022-11-08T18:41:23.095Z,91.83
2022-11-08T18:43:51.506Z,93.07
2022-11-08T18:46:22.227Z,94.30
2022-11-08T18:48:50.833Z,91.54
2022-11-08T18:51:20.930Z,93.11
2022-11-08T18:53:49.632Z,93.92
2022-11-08T18:56:20.444Z,92.58
2022-11-08T18:58:49.342Z,91.68
2022-11-08T19:01:17.800Z,92.40
2022-11-08T19:03:46.385Z,90.26
2022-11-08T19:06:14.396Z,89.95
2022-11-08T19:08:42.652Z,90.38
2022-11-08T19:11:12.352Z,89.52
2022-11-08T19:13:40.903Z,90.19
2022-11-08T19:16:14.362Z,89.99
2022-11-08T19:18:43.040Z,89.30
2022-11-08T19:21:15.655Z,89.35
2022-11-08T19:23:43.933Z,88.77
2022-11-08T19:26:15.028Z,91.01
2022-11-08T19:28:46.050Z,89.12
2022-11-08T19:31:16.344Z,89.63
2022-11-08T19:33:45.121Z,91.70
2022-11-08T19:36:15.414Z,90.43
2022-11-08T19:38:44.484Z,90.97
2022-11-08T19:41:14.844Z,88.71
2022-11-08T19:43:44.339Z,91.75
2022-11-08T19:46:15.482Z,90.15
2022-11-08T19:48:45.653Z,89.73
2022-11-08T19:51:17.675Z,90.70
2022-11-08T19:53:46.415Z,91.85
2022-11-08T19:56:17.375Z,92.30
2022-11-08T19:58:46.012Z,89.05
2022-11-08T20:01:17.596Z,90.68
2022-11-08T20:03:46.452Z,92.24
2022-11-08T20:06:15.965Z,89.65
2022-11-08T20:08:47.351Z,89.55
2022-11-08T20:11:25.933Z,92.04
2022-11-08T20:13:53.693Z,89.09
2022-11-08T20:16:27.253Z,88.95
2022-11-08T20:18:56.890Z,90.22
2022-11-08T20:21:24.811Z,90.85
2022-11-08T20:23:52.329Z,91.19
2022-11-08T20:26:22.513Z,89.93
2022-11-08T20:28:56.517Z,91.97
2022-11-08T20:31:25.622Z,89.71
2022-11-08T20:33:54.996Z,90.27
2022-11-08T20:36:24.472Z,88.88
2022-11-08T20:38:58.360Z,87.70
2022-11-08T20:41:30.420Z,89.93
2022-11-08T20:43:58.519Z,89.50
2022-11-08T20:46:27.578Z,90.43
2022-11-08T20:49:00.823Z,90.61
2022-11-08T20:51:30.879Z,91.86
2022-11-08T20:54:01.153Z,90.00
2022-11-08T20:56:32.039Z,90.44
2022-11-08T20:59:01.787Z,90.98
2022-11-08T21:01:30.906Z,91.51
2022-11-08T21:03:58.838Z,89.78
2022-11-08T21:06:28.434Z,90.16
2022-11-08T21:08:59.962Z,89.96
2022-11-08T21:11:31.269Z,88.90
2022-11-08T21:13:59.097Z,89.77
2022-11-08T21:16:30.552Z,91.79
2022-11-08T21:19:01.355Z,92.22
2022-11-08T21:21:29.028Z,90.05
2022-11-08T21:23:56.708Z,90.45
2022-11-08T21:26:25.293Z,87.74
2022-11-08T21:28:53.785Z,87.81
2022-11-08T21:31:21.437Z,87.58
2022-11-08T21:33:49.764Z,90.67
2022-11-08T21:36:18.359Z,88.14
2022-11-08T21:38:47.954Z,87.50
2022-11-08T21:41:15.962Z,88.56
2022-11-08T21:43:44.649Z,91.97
2022-11-08T21:46:18.352Z,90.63
2022-11-08T21:48:46.755Z,89.85
